sensor_id;sensor_type;location;lat;lon;timestamp;P1;durP1;ratioP1;P2;durP2;ratioP2
60352;SDS011;46196;52.970;6.954;2023-06-24T00:01:27;17.55;;;8.50;;
60352;SDS011;46196;52.970;6.954;2023-06-24T00:03:53;15.45;;;9.20;;
60352;SDS011;46196;52.970;6.954;2023-06-24T00:06:19;17.52;;;9.38;;
60352;SDS011;46196;52.970;6.954;2023-06-24T00:08:50;13.75;;;9.35;;
60352;SDS011;46196;52.970;6.954;2023-06-24T00:11:16;14.48;;;9.38;;
60352;SDS011;46196;52.970;6.954;2023-06-24T00:13:43;16.00;;;9.27;;
60352;SDS011;46196;52.970;6.954;2023-06-24T00:16:09;15.50;;;9.13;;
60352;SDS011;46196;52.970;6.954;2023-06-24T00:18:35;16.10;;;8.98;;
60352;SDS011;46196;52.970;6.954;2023-06-24T00:21:02;16.85;;;9.23;;
60352;SDS011;46196;52.970;6.954;2023-06-24T00:23:29;14.88;;;9.50;;
60352;SDS011;46196;52.970;6.954;2023-06-24T00:26:01;21.95;;;10.70;;
60352;SDS011;46196;52.970;6.954;2023-06-24T00:28:27;17.20;;;10.65;;
60352;SDS011;46196;52.970;6.954;2023-06-24T00:30:53;19.52;;;10.35;;
60352;SDS011;46196;52.970;6.954;2023-06-24T00:33:19;18.85;;;10.13;;
60352;SDS011;46196;52.970;6.954;2023-06-24T00:35:46;20.15;;;9.98;;
60352;SDS011;46196;52.970;6.954;2023-06-24T00:38:12;18.00;;;10.10;;
60352;SDS011;46196;52.970;6.954;2023-06-24T00:40:38;15.07;;;9.40;;
60352;SDS011;46196;52.970;6.954;2023-06-24T00:43:07;15.85;;;9.50;;
60352;SDS011;46196;52.970;6.954;2023-06-24T00:45:33;19.87;;;9.83;;
60352;SDS011;46196;52.970;6.954;2023-06-24T00:47:59;17.67;;;9.48;;
60352;SDS011;46196;52.970;6.954;2023-06-24T00:50:26;18.15;;;9.55;;
60352;SDS011;46196;52.970;6.954;2023-06-24T00:52:52;16.10;;;9.40;;
60352;SDS011;46196;52.970;6.954;2023-06-24T00:55:18;19.45;;;10.07;;
60352;SDS011;46196;52.970;6.954;2023-06-24T00:57:49;19.48;;;9.68;;
60352;SDS011;46196;52.970;6.954;2023-06-24T01:00:19;17.00;;;10.07;;
60352;SDS011;46196;52.970;6.954;2023-06-24T01:02:46;17.67;;;9.30;;
60352;SDS011;46196;52.970;6.954;2023-06-24T01:05:13;24.45;;;10.93;;
60352;SDS011;46196;52.970;6.954;2023-06-24T01:07:39;21.35;;;11.30;;
60352;SDS011;46196;52.970;6.954;2023-06-24T01:10:06;20.73;;;11.32;;
60352;SDS011;46196;52.970;6.954;2023-06-24T01:12:33;21.05;;;11.95;;
60352;SDS011;46196;52.970;6.954;2023-06-24T01:14:59;25.17;;;12.45;;
60352;SDS011;46196;52.970;6.954;2023-06-24T01:17:31;20.35;;;11.43;;
60352;SDS011;46196;52.970;6.954;2023-06-24T01:21:01;22.95;;;12.18;;
60352;SDS011;46196;52.970;6.954;2023-06-24T01:25:39;22.00;;;12.15;;
60352;SDS011;46196;52.970;6.954;2023-06-24T01:34:32;24.10;;;13.27;;
60352;SDS011;46196;52.970;6.954;2023-06-24T01:37:17;23.70;;;12.45;;
60352;SDS011;46196;52.970;6.954;2023-06-24T01:39:46;25.42;;;12.57;;
60352;SDS011;46196;52.970;6.954;2023-06-24T01:42:15;25.33;;;12.15;;
60352;SDS011;46196;52.970;6.954;2023-06-24T01:44:45;23.60;;;12.68;;
60352;SDS011;46196;52.970;6.954;2023-06-24T01:47:13;25.88;;;13.30;;
60352;SDS011;46196;52.970;6.954;2023-06-24T01:49:43;26.58;;;12.60;;
60352;SDS011;46196;52.970;6.954;2023-06-24T01:52:10;27.75;;;12.70;;
60352;SDS011;46196;52.970;6.954;2023-06-24T01:54:38;26.90;;;12.27;;
60352;SDS011;46196;52.970;6.954;2023-06-24T01:57:07;26.75;;;13.30;;
60352;SDS011;46196;52.970;6.954;2023-06-24T01:59:36;24.60;;;12.60;;
60352;SDS011;46196;52.970;6.954;2023-06-24T02:02:05;22.52;;;12.00;;
60352;SDS011;46196;52.970;6.954;2023-06-24T02:04:32;24.90;;;12.20;;
60352;SDS011;46196;52.970;6.954;2023-06-24T02:07:01;25.75;;;12.85;;
60352;SDS011;46196;52.970;6.954;2023-06-24T02:09:28;25.58;;;12.35;;
60352;SDS011;46196;52.970;6.954;2023-06-24T02:11:59;25.25;;;13.02;;
60352;SDS011;46196;52.970;6.954;2023-06-24T02:14:28;26.63;;;12.15;;
60352;SDS011;46196;52.970;6.954;2023-06-24T02:16:55;23.35;;;11.68;;
60352;SDS011;46196;52.970;6.954;2023-06-24T02:19:24;20.95;;;11.52;;
60352;SDS011;46196;52.970;6.954;2023-06-24T02:21:52;24.77;;;12.35;;
60352;SDS011;46196;52.970;6.954;2023-06-24T02:24:19;21.67;;;11.32;;
60352;SDS011;46196;52.970;6.954;2023-06-24T02:26:45;21.15;;;10.52;;
60352;SDS011;46196;52.970;6.954;2023-06-24T02:29:12;23.30;;;10.95;;
60352;SDS011;46196;52.970;6.954;2023-06-24T02:31:39;23.73;;;11.15;;
60352;SDS011;46196;52.970;6.954;2023-06-24T02:34:05;23.33;;;11.38;;
60352;SDS011;46196;52.970;6.954;2023-06-24T02:36:30;21.48;;;11.45;;
60352;SDS011;46196;52.970;6.954;2023-06-24T02:38:56;20.17;;;11.10;;
60352;SDS011;46196;52.970;6.954;2023-06-24T02:41:22;27.75;;;11.70;;
60352;SDS011;46196;52.970;6.954;2023-06-24T02:43:47;24.35;;;11.73;;
60352;SDS011;46196;52.970;6.954;2023-06-24T02:46:13;23.58;;;12.10;;
60352;SDS011;46196;52.970;6.954;2023-06-24T02:48:40;26.70;;;12.82;;
60352;SDS011;46196;52.970;6.954;2023-06-24T02:51:07;24.23;;;12.55;;
60352;SDS011;46196;52.970;6.954;2023-06-24T02:53:36;24.17;;;12.05;;
60352;SDS011;46196;52.970;6.954;2023-06-24T02:56:03;27.75;;;13.20;;
60352;SDS011;46196;52.970;6.954;2023-06-24T02:58:31;23.98;;;12.57;;
60352;SDS011;46196;52.970;6.954;2023-06-24T03:01:00;27.45;;;12.60;;
60352;SDS011;46196;52.970;6.954;2023-06-24T03:03:28;23.80;;;12.85;;
60352;SDS011;46196;52.970;6.954;2023-06-24T03:05:54;21.98;;;11.18;;
60352;SDS011;46196;52.970;6.954;2023-06-24T03:08:23;25.08;;;12.80;;
60352;SDS011;46196;52.970;6.954;2023-06-24T03:10:56;26.70;;;13.02;;
60352;SDS011;46196;52.970;6.954;2023-06-24T03:13:22;29.00;;;12.85;;
60352;SDS011;46196;52.970;6.954;2023-06-24T03:15:48;30.63;;;14.55;;
60352;SDS011;46196;52.970;6.954;2023-06-24T03:18:14;30.48;;;14.82;;
60352;SDS011;46196;52.970;6.954;2023-06-24T03:20:40;28.17;;;13.95;;
60352;SDS011;46196;52.970;6.954;2023-06-24T03:23:06;27.50;;;13.15;;
60352;SDS011;46196;52.970;6.954;2023-06-24T03:25:32;26.40;;;12.75;;
60352;SDS011;46196;52.970;6.954;2023-06-24T03:27:58;30.67;;;13.75;;
60352;SDS011;46196;52.970;6.954;2023-06-24T03:30:33;29.40;;;13.82;;
60352;SDS011;46196;52.970;6.954;2023-06-24T03:32:59;26.92;;;12.82;;
60352;SDS011;46196;52.970;6.954;2023-06-24T03:35:25;25.33;;;12.98;;
60352;SDS011;46196;52.970;6.954;2023-06-24T03:37:51;26.33;;;12.63;;
60352;SDS011;46196;52.970;6.954;2023-06-24T03:40:16;26.17;;;11.85;;
60352;SDS011;46196;52.970;6.954;2023-06-24T03:42:42;26.45;;;12.60;;
60352;SDS011;46196;52.970;6.954;2023-06-24T03:45:08;23.77;;;11.65;;
60352;SDS011;46196;52.970;6.954;2023-06-24T03:47:34;26.67;;;13.93;;
60352;SDS011;46196;52.970;6.954;2023-06-24T03:49:59;27.20;;;13.27;;
60352;SDS011;46196;52.970;6.954;2023-06-24T03:52:25;26.58;;;11.75;;
60352;SDS011;46196;52.970;6.954;2023-06-24T03:54:51;23.08;;;12.00;;
60352;SDS011;46196;52.970;6.954;2023-06-24T03:57:16;28.25;;;13.43;;
60352;SDS011;46196;52.970;6.954;2023-06-24T03:59:42;26.60;;;11.98;;
60352;SDS011;46196;52.970;6.954;2023-06-24T04:02:08;31.17;;;11.85;;
60352;SDS011;46196;52.970;6.954;2023-06-24T04:04:34;27.60;;;12.85;;
60352;SDS011;46196;52.970;6.954;2023-06-24T04:07:00;26.27;;;11.90;;
60352;SDS011;46196;52.970;6.954;2023-06-24T04:09:26;36.03;;;12.70;;
60352;SDS011;46196;52.970;6.954;2023-06-24T04:11:51;24.63;;;11.60;;
60352;SDS011;46196;52.970;6.954;2023-06-24T04:14:17;25.40;;;11.68;;
60352;SDS011;46196;52.970;6.954;2023-06-24T04:16:43;29.00;;;13.20;;
60352;SDS011;46196;52.970;6.954;2023-06-24T04:19:08;26.08;;;12.93;;
60352;SDS011;46196;52.970;6.954;2023-06-24T04:21:34;26.75;;;13.07;;
60352;SDS011;46196;52.970;6.954;2023-06-24T04:24:00;26.13;;;12.95;;
60352;SDS011;46196;52.970;6.954;2023-06-24T04:26:25;25.48;;;13.23;;
60352;SDS011;46196;52.970;6.954;2023-06-24T04:28:51;24.95;;;11.50;;
60352;SDS011;46196;52.970;6.954;2023-06-24T04:31:17;27.60;;;12.13;;
60352;SDS011;46196;52.970;6.954;2023-06-24T04:33:42;23.83;;;11.93;;
60352;SDS011;46196;52.970;6.954;2023-06-24T04:36:08;26.90;;;12.70;;
60352;SDS011;46196;52.970;6.954;2023-06-24T04:38:34;29.05;;;12.35;;
60352;SDS011;46196;52.970;6.954;2023-06-24T04:40:59;24.58;;;11.85;;
60352;SDS011;46196;52.970;6.954;2023-06-24T04:43:25;28.60;;;12.13;;
60352;SDS011;46196;52.970;6.954;2023-06-24T04:45:53;26.90;;;12.88;;
60352;SDS011;46196;52.970;6.954;2023-06-24T04:48:20;24.83;;;12.65;;
60352;SDS011;46196;52.970;6.954;2023-06-24T04:50:47;25.75;;;12.82;;
60352;SDS011;46196;52.970;6.954;2023-06-24T04:53:13;29.77;;;12.57;;
60352;SDS011;46196;52.970;6.954;2023-06-24T04:55:39;28.27;;;12.60;;
60352;SDS011;46196;52.970;6.954;2023-06-24T04:58:05;25.98;;;12.80;;
60352;SDS011;46196;52.970;6.954;2023-06-24T05:00:30;24.80;;;12.18;;
60352;SDS011;46196;52.970;6.954;2023-06-24T05:02:56;28.33;;;13.57;;
60352;SDS011;46196;52.970;6.954;2023-06-24T05:05:22;26.00;;;12.77;;
60352;SDS011;46196;52.970;6.954;2023-06-24T05:07:47;27.05;;;13.32;;
60352;SDS011;46196;52.970;6.954;2023-06-24T05:10:13;34.15;;;14.02;;
60352;SDS011;46196;52.970;6.954;2023-06-24T05:12:39;27.80;;;12.27;;
60352;SDS011;46196;52.970;6.954;2023-06-24T05:15:04;32.42;;;13.20;;
60352;SDS011;46196;52.970;6.954;2023-06-24T05:17:31;26.90;;;12.65;;
60352;SDS011;46196;52.970;6.954;2023-06-24T05:19:56;29.73;;;13.20;;
60352;SDS011;46196;52.970;6.954;2023-06-24T05:22:22;28.50;;;13.13;;
60352;SDS011;46196;52.970;6.954;2023-06-24T05:24:48;25.80;;;13.23;;
60352;SDS011;46196;52.970;6.954;2023-06-24T05:27:13;26.23;;;12.73;;
60352;SDS011;46196;52.970;6.954;2023-06-24T05:29:39;28.63;;;13.45;;
60352;SDS011;46196;52.970;6.954;2023-06-24T05:32:05;30.48;;;13.80;;
60352;SDS011;46196;52.970;6.954;2023-06-24T05:34:31;30.17;;;13.70;;
60352;SDS011;46196;52.970;6.954;2023-06-24T05:36:57;27.67;;;13.07;;
60352;SDS011;46196;52.970;6.954;2023-06-24T05:39:22;30.63;;;13.57;;
60352;SDS011;46196;52.970;6.954;2023-06-24T05:41:49;28.27;;;12.98;;
60352;SDS011;46196;52.970;6.954;2023-06-24T05:44:15;30.48;;;12.60;;
60352;SDS011;46196;52.970;6.954;2023-06-24T05:46:43;26.50;;;12.45;;
60352;SDS011;46196;52.970;6.954;2023-06-24T05:49:11;28.97;;;13.77;;
60352;SDS011;46196;52.970;6.954;2023-06-24T05:51:37;24.60;;;12.23;;
60352;SDS011;46196;52.970;6.954;2023-06-24T05:54:03;28.10;;;13.18;;
60352;SDS011;46196;52.970;6.954;2023-06-24T05:56:29;26.17;;;13.68;;
60352;SDS011;46196;52.970;6.954;2023-06-24T06:01:50;26.95;;;13.18;;
60352;SDS011;46196;52.970;6.954;2023-06-24T06:04:16;31.25;;;12.77;;
60352;SDS011;46196;52.970;6.954;2023-06-24T06:06:41;28.23;;;12.68;;
60352;SDS011;46196;52.970;6.954;2023-06-24T06:09:07;27.27;;;12.70;;
60352;SDS011;46196;52.970;6.954;2023-06-24T06:11:33;22.98;;;12.32;;
60352;SDS011;46196;52.970;6.954;2023-06-24T06:13:59;26.02;;;12.82;;
60352;SDS011;46196;52.970;6.954;2023-06-24T06:16:24;24.55;;;12.15;;
60352;SDS011;46196;52.970;6.954;2023-06-24T06:18:50;31.45;;;12.43;;
60352;SDS011;46196;52.970;6.954;2023-06-24T06:21:16;26.30;;;12.50;;
60352;SDS011;46196;52.970;6.954;2023-06-24T06:23:41;27.33;;;11.25;;
60352;SDS011;46196;52.970;6.954;2023-06-24T06:26:07;28.15;;;13.40;;
60352;SDS011;46196;52.970;6.954;2023-06-24T06:28:33;24.52;;;11.98;;
60352;SDS011;46196;52.970;6.954;2023-06-24T06:30:59;25.42;;;13.23;;
60352;SDS011;46196;52.970;6.954;2023-06-24T06:33:25;27.80;;;13.30;;
60352;SDS011;46196;52.970;6.954;2023-06-24T06:35:50;25.60;;;12.48;;
60352;SDS011;46196;52.970;6.954;2023-06-24T06:38:16;24.42;;;12.32;;
60352;SDS011;46196;52.970;6.954;2023-06-24T06:40:42;23.88;;;12.73;;
60352;SDS011;46196;52.970;6.954;2023-06-24T06:43:07;23.85;;;12.43;;
60352;SDS011;46196;52.970;6.954;2023-06-24T06:45:33;25.00;;;12.13;;
60352;SDS011;46196;52.970;6.954;2023-06-24T06:47:58;24.90;;;12.18;;
60352;SDS011;46196;52.970;6.954;2023-06-24T06:50:24;23.83;;;12.07;;
60352;SDS011;46196;52.970;6.954;2023-06-24T06:52:50;22.35;;;10.85;;
60352;SDS011;46196;52.970;6.954;2023-06-24T06:55:15;22.48;;;11.95;;
60352;SDS011;46196;52.970;6.954;2023-06-24T06:57:41;21.63;;;11.15;;
60352;SDS011;46196;52.970;6.954;2023-06-24T07:00:07;20.92;;;11.23;;
60352;SDS011;46196;52.970;6.954;2023-06-24T07:02:33;22.17;;;11.10;;
60352;SDS011;46196;52.970;6.954;2023-06-24T07:04:59;21.23;;;10.15;;
60352;SDS011;46196;52.970;6.954;2023-06-24T07:07:26;20.92;;;9.85;;
60352;SDS011;46196;52.970;6.954;2023-06-24T07:09:51;16.77;;;9.35;;
60352;SDS011;46196;52.970;6.954;2023-06-24T07:12:17;19.13;;;9.90;;
60352;SDS011;46196;52.970;6.954;2023-06-24T07:14:43;24.38;;;9.48;;
60352;SDS011;46196;52.970;6.954;2023-06-24T07:17:09;14.98;;;8.82;;
60352;SDS011;46196;52.970;6.954;2023-06-24T07:19:34;19.23;;;9.63;;
60352;SDS011;46196;52.970;6.954;2023-06-24T07:22:00;18.58;;;10.52;;
60352;SDS011;46196;52.970;6.954;2023-06-24T07:24:26;17.73;;;9.65;;
60352;SDS011;46196;52.970;6.954;2023-06-24T07:26:51;14.40;;;8.77;;
60352;SDS011;46196;52.970;6.954;2023-06-24T07:29:17;15.10;;;9.07;;
60352;SDS011;46196;52.970;6.954;2023-06-24T07:31:43;16.90;;;9.63;;
60352;SDS011;46196;52.970;6.954;2023-06-24T07:34:09;15.02;;;9.15;;
60352;SDS011;46196;52.970;6.954;2023-06-24T07:36:34;15.85;;;8.93;;
60352;SDS011;46196;52.970;6.954;2023-06-24T07:39:00;17.17;;;10.07;;
60352;SDS011;46196;52.970;6.954;2023-06-24T07:41:26;14.75;;;9.18;;
60352;SDS011;46196;52.970;6.954;2023-06-24T07:43:51;16.33;;;9.73;;
60352;SDS011;46196;52.970;6.954;2023-06-24T07:46:17;13.60;;;8.60;;
60352;SDS011;46196;52.970;6.954;2023-06-24T07:48:43;17.05;;;9.48;;
60352;SDS011;46196;52.970;6.954;2023-06-24T07:51:09;13.85;;;9.05;;
60352;SDS011;46196;52.970;6.954;2023-06-24T07:53:34;12.10;;;8.18;;
60352;SDS011;46196;52.970;6.954;2023-06-24T07:56:00;12.73;;;8.88;;
60352;SDS011;46196;52.970;6.954;2023-06-24T07:58:26;13.93;;;8.40;;
60352;SDS011;46196;52.970;6.954;2023-06-24T08:00:51;14.05;;;7.30;;
60352;SDS011;46196;52.970;6.954;2023-06-24T08:03:17;11.27;;;8.05;;
60352;SDS011;46196;52.970;6.954;2023-06-24T08:05:43;10.57;;;8.15;;
60352;SDS011;46196;52.970;6.954;2023-06-24T08:08:09;13.52;;;8.43;;
60352;SDS011;46196;52.970;6.954;2023-06-24T08:10:34;10.80;;;7.82;;
60352;SDS011;46196;52.970;6.954;2023-06-24T08:13:00;14.65;;;7.65;;
60352;SDS011;46196;52.970;6.954;2023-06-24T08:15:26;12.95;;;8.45;;
60352;SDS011;46196;52.970;6.954;2023-06-24T08:17:51;12.02;;;7.75;;
60352;SDS011;46196;52.970;6.954;2023-06-24T08:20:19;10.98;;;7.10;;
60352;SDS011;46196;52.970;6.954;2023-06-24T08:22:45;11.73;;;8.15;;
60352;SDS011;46196;52.970;6.954;2023-06-24T08:25:11;11.48;;;7.32;;
60352;SDS011;46196;52.970;6.954;2023-06-24T08:27:36;9.85;;;7.80;;
60352;SDS011;46196;52.970;6.954;2023-06-24T08:30:04;12.90;;;8.07;;
60352;SDS011;46196;52.970;6.954;2023-06-24T08:32:30;12.68;;;6.95;;
60352;SDS011;46196;52.970;6.954;2023-06-24T08:34:56;13.43;;;6.78;;
60352;SDS011;46196;52.970;6.954;2023-06-24T08:37:21;9.95;;;6.53;;
60352;SDS011;46196;52.970;6.954;2023-06-24T08:39:47;10.57;;;6.95;;
60352;SDS011;46196;52.970;6.954;2023-06-24T08:42:13;10.10;;;6.68;;
60352;SDS011;46196;52.970;6.954;2023-06-24T08:44:39;10.20;;;6.88;;
60352;SDS011;46196;52.970;6.954;2023-06-24T08:47:04;10.18;;;6.82;;
60352;SDS011;46196;52.970;6.954;2023-06-24T08:49:30;15.77;;;7.53;;
60352;SDS011;46196;52.970;6.954;2023-06-24T08:52:03;11.10;;;7.00;;
60352;SDS011;46196;52.970;6.954;2023-06-24T08:54:41;12.07;;;6.63;;
60352;SDS011;46196;52.970;6.954;2023-06-24T08:57:10;10.43;;;6.93;;
60352;SDS011;46196;52.970;6.954;2023-06-24T08:59:41;10.85;;;6.80;;
60352;SDS011;46196;52.970;6.954;2023-06-24T09:02:08;8.50;;;6.30;;
60352;SDS011;46196;52.970;6.954;2023-06-24T09:04:33;10.75;;;6.38;;
60352;SDS011;46196;52.970;6.954;2023-06-24T09:06:59;7.18;;;5.07;;
60352;SDS011;46196;52.970;6.954;2023-06-24T09:09:25;8.80;;;5.38;;
60352;SDS011;46196;52.970;6.954;2023-06-24T09:11:56;8.05;;;5.40;;
60352;SDS011;46196;52.970;6.954;2023-06-24T09:14:26;8.68;;;5.80;;
60352;SDS011;46196;52.970;6.954;2023-06-24T09:16:57;11.55;;;5.63;;
60352;SDS011;46196;52.970;6.954;2023-06-24T09:19:26;10.02;;;6.15;;
60352;SDS011;46196;52.970;6.954;2023-06-24T09:22:04;10.05;;;5.80;;
60352;SDS011;46196;52.970;6.954;2023-06-24T09:24:31;10.70;;;6.45;;
60352;SDS011;46196;52.970;6.954;2023-06-24T09:27:01;10.35;;;6.50;;
60352;SDS011;46196;52.970;6.954;2023-06-24T09:29:29;9.02;;;6.15;;
60352;SDS011;46196;52.970;6.954;2023-06-24T09:31:57;10.85;;;6.15;;
60352;SDS011;46196;52.970;6.954;2023-06-24T09:34:24;10.77;;;6.50;;
60352;SDS011;46196;52.970;6.954;2023-06-24T09:36:52;10.95;;;6.93;;
60352;SDS011;46196;52.970;6.954;2023-06-24T09:39:18;11.25;;;7.15;;
60352;SDS011;46196;52.970;6.954;2023-06-24T09:44:15;8.60;;;5.82;;
60352;SDS011;46196;52.970;6.954;2023-06-24T09:46:44;10.02;;;6.80;;
60352;SDS011;46196;52.970;6.954;2023-06-24T09:49:10;10.15;;;6.22;;
60352;SDS011;46196;52.970;6.954;2023-06-24T09:51:37;10.27;;;6.72;;
60352;SDS011;46196;52.970;6.954;2023-06-24T09:54:07;8.73;;;5.78;;
60352;SDS011;46196;52.970;6.954;2023-06-24T09:56:37;10.20;;;6.25;;
60352;SDS011;46196;52.970;6.954;2023-06-24T09:59:07;9.18;;;5.70;;
60352;SDS011;46196;52.970;6.954;2023-06-24T10:01:35;9.13;;;6.20;;
60352;SDS011;46196;52.970;6.954;2023-06-24T10:04:04;10.25;;;6.60;;
60352;SDS011;46196;52.970;6.954;2023-06-24T10:06:31;7.72;;;5.25;;
60352;SDS011;46196;52.970;6.954;2023-06-24T10:08:58;10.88;;;7.15;;
60352;SDS011;46196;52.970;6.954;2023-06-24T10:11:25;9.63;;;6.53;;
60352;SDS011;46196;52.970;6.954;2023-06-24T10:13:51;8.82;;;6.13;;
60352;SDS011;46196;52.970;6.954;2023-06-24T10:16:18;10.70;;;6.60;;
60352;SDS011;46196;52.970;6.954;2023-06-24T10:18:44;10.15;;;6.70;;
60352;SDS011;46196;52.970;6.954;2023-06-24T10:21:10;8.82;;;5.88;;
60352;SDS011;46196;52.970;6.954;2023-06-24T10:23:41;10.68;;;6.63;;
60352;SDS011;46196;52.970;6.954;2023-06-24T10:26:07;7.57;;;4.85;;
60352;SDS011;46196;52.970;6.954;2023-06-24T10:47:34;8.80;;;5.90;;
60352;SDS011;46196;52.970;6.954;2023-06-24T10:50:01;8.60;;;5.88;;
60352;SDS011;46196;52.970;6.954;2023-06-24T10:52:28;7.95;;;5.43;;
60352;SDS011;46196;52.970;6.954;2023-06-24T10:54:55;11.40;;;6.00;;
60352;SDS011;46196;52.970;6.954;2023-06-24T10:57:26;10.18;;;5.75;;
60352;SDS011;46196;52.970;6.954;2023-06-24T10:59:53;8.48;;;5.38;;
60352;SDS011;46196;52.970;6.954;2023-06-24T11:02:21;10.17;;;5.77;;
60352;SDS011;46196;52.970;6.954;2023-06-24T11:04:57;7.60;;;5.53;;
60352;SDS011;46196;52.970;6.954;2023-06-24T11:07:25;7.65;;;5.43;;
60352;SDS011;46196;52.970;6.954;2023-06-24T11:09:55;5.93;;;3.97;;
60352;SDS011;46196;52.970;6.954;2023-06-24T11:12:26;6.72;;;4.80;;
60352;SDS011;46196;52.970;6.954;2023-06-24T11:14:56;8.27;;;4.80;;
60352;SDS011;46196;52.970;6.954;2023-06-24T11:17:29;8.43;;;5.15;;
60352;SDS011;46196;52.970;6.954;2023-06-24T11:19:55;8.20;;;5.20;;
60352;SDS011;46196;52.970;6.954;2023-06-24T11:22:22;7.45;;;5.05;;
60352;SDS011;46196;52.970;6.954;2023-06-24T11:24:49;7.40;;;5.00;;
60352;SDS011;46196;52.970;6.954;2023-06-24T11:27:15;7.43;;;5.13;;
60352;SDS011;46196;52.970;6.954;2023-06-24T11:29:40;6.78;;;4.72;;
60352;SDS011;46196;52.970;6.954;2023-06-24T11:32:07;7.70;;;4.60;;
60352;SDS011;46196;52.970;6.954;2023-06-24T11:34:33;6.80;;;4.22;;
60352;SDS011;46196;52.970;6.954;2023-06-24T11:37:11;7.15;;;4.30;;
60352;SDS011;46196;52.970;6.954;2023-06-24T11:39:38;7.53;;;4.63;;
60352;SDS011;46196;52.970;6.954;2023-06-24T11:42:08;5.13;;;3.90;;
60352;SDS011;46196;52.970;6.954;2023-06-24T11:44:34;5.45;;;4.25;;
60352;SDS011;46196;52.970;6.954;2023-06-24T11:47:06;6.15;;;4.35;;
60352;SDS011;46196;52.970;6.954;2023-06-24T11:49:52;7.35;;;4.20;;
60352;SDS011;46196;52.970;6.954;2023-06-24T11:52:27;8.13;;;4.07;;
60352;SDS011;46196;52.970;6.954;2023-06-24T11:55:23;5.97;;;4.00;;
60352;SDS011;46196;52.970;6.954;2023-06-24T11:57:50;7.55;;;4.45;;
60352;SDS011;46196;52.970;6.954;2023-06-24T12:02:53;6.10;;;4.20;;
60352;SDS011;46196;52.970;6.954;2023-06-24T12:05:23;8.20;;;4.10;;
60352;SDS011;46196;52.970;6.954;2023-06-24T12:07:54;5.88;;;4.30;;
60352;SDS011;46196;52.970;6.954;2023-06-24T12:10:23;5.78;;;3.80;;
60352;SDS011;46196;52.970;6.954;2023-06-24T12:12:49;6.35;;;4.07;;
60352;SDS011;46196;52.970;6.954;2023-06-24T12:15:15;6.40;;;3.92;;
60352;SDS011;46196;52.970;6.954;2023-06-24T12:17:41;7.63;;;4.32;;
60352;SDS011;46196;52.970;6.954;2023-06-24T12:20:06;7.38;;;4.40;;
60352;SDS011;46196;52.970;6.954;2023-06-24T12:22:33;5.30;;;3.90;;
60352;SDS011;46196;52.970;6.954;2023-06-24T12:24:58;5.93;;;3.80;;
60352;SDS011;46196;52.970;6.954;2023-06-24T12:27:24;6.30;;;4.07;;
60352;SDS011;46196;52.970;6.954;2023-06-24T12:29:50;7.05;;;4.13;;
60352;SDS011;46196;52.970;6.954;2023-06-24T12:32:15;6.97;;;4.03;;
60352;SDS011;46196;52.970;6.954;2023-06-24T12:34:41;6.45;;;3.83;;
60352;SDS011;46196;52.970;6.954;2023-06-24T12:37:07;7.40;;;4.35;;
60352;SDS011;46196;52.970;6.954;2023-06-24T12:39:32;5.10;;;3.97;;
60352;SDS011;46196;52.970;6.954;2023-06-24T12:41:58;5.75;;;3.80;;
60352;SDS011;46196;52.970;6.954;2023-06-24T12:44:23;7.35;;;4.10;;
60352;SDS011;46196;52.970;6.954;2023-06-24T12:46:49;7.03;;;3.80;;
60352;SDS011;46196;52.970;6.954;2023-06-24T12:49:15;6.05;;;4.32;;
60352;SDS011;46196;52.970;6.954;2023-06-24T12:51:40;6.18;;;4.07;;
60352;SDS011;46196;52.970;6.954;2023-06-24T12:54:06;6.95;;;4.70;;
60352;SDS011;46196;52.970;6.954;2023-06-24T12:56:32;7.35;;;3.90;;
60352;SDS011;46196;52.970;6.954;2023-06-24T12:58:57;5.60;;;4.13;;
60352;SDS011;46196;52.970;6.954;2023-06-24T13:01:23;7.18;;;4.40;;
60352;SDS011;46196;52.970;6.954;2023-06-24T13:03:48;5.95;;;4.47;;
60352;SDS011;46196;52.970;6.954;2023-06-24T13:06:14;6.30;;;3.92;;
60352;SDS011;46196;52.970;6.954;2023-06-24T13:08:40;7.43;;;4.40;;
60352;SDS011;46196;52.970;6.954;2023-06-24T13:11:06;11.82;;;4.60;;
60352;SDS011;46196;52.970;6.954;2023-06-24T13:13:32;6.20;;;4.28;;
60352;SDS011;46196;52.970;6.954;2023-06-24T13:15:57;10.18;;;4.53;;
60352;SDS011;46196;52.970;6.954;2023-06-24T13:18:23;5.57;;;4.38;;
60352;SDS011;46196;52.970;6.954;2023-06-24T13:20:49;8.45;;;4.25;;
60352;SDS011;46196;52.970;6.954;2023-06-24T13:23:14;6.93;;;4.40;;
60352;SDS011;46196;52.970;6.954;2023-06-24T13:25:40;6.75;;;4.93;;
60352;SDS011;46196;52.970;6.954;2023-06-24T13:28:06;7.05;;;4.28;;
60352;SDS011;46196;52.970;6.954;2023-06-24T13:30:31;7.22;;;4.20;;
60352;SDS011;46196;52.970;6.954;2023-06-24T13:32:57;5.50;;;4.45;;
60352;SDS011;46196;52.970;6.954;2023-06-24T13:35:23;6.65;;;4.47;;
60352;SDS011;46196;52.970;6.954;2023-06-24T13:37:48;5.82;;;4.20;;
60352;SDS011;46196;52.970;6.954;2023-06-24T13:40:14;5.88;;;4.55;;
60352;SDS011;46196;52.970;6.954;2023-06-24T13:42:39;7.25;;;4.30;;
60352;SDS011;46196;52.970;6.954;2023-06-24T13:45:05;9.20;;;4.72;;
60352;SDS011;46196;52.970;6.954;2023-06-24T13:47:31;5.90;;;4.10;;
60352;SDS011;46196;52.970;6.954;2023-06-24T13:49:57;8.13;;;4.60;;
60352;SDS011;46196;52.970;6.954;2023-06-24T13:52:24;7.85;;;4.47;;
60352;SDS011;46196;52.970;6.954;2023-06-24T13:54:53;6.65;;;4.65;;
60352;SDS011;46196;52.970;6.954;2023-06-24T13:57:19;5.57;;;4.53;;
60352;SDS011;46196;52.970;6.954;2023-06-24T13:59:45;5.88;;;4.18;;
60352;SDS011;46196;52.970;6.954;2023-06-24T14:02:11;6.55;;;4.55;;
60352;SDS011;46196;52.970;6.954;2023-06-24T14:04:37;7.20;;;4.63;;
60352;SDS011;46196;52.970;6.954;2023-06-24T14:07:04;6.78;;;4.55;;
60352;SDS011;46196;52.970;6.954;2023-06-24T14:09:31;7.15;;;4.88;;
60352;SDS011;46196;52.970;6.954;2023-06-24T14:11:57;6.43;;;4.78;;
60352;SDS011;46196;52.970;6.954;2023-06-24T14:14:22;8.43;;;4.40;;
60352;SDS011;46196;52.970;6.954;2023-06-24T14:16:48;5.90;;;4.15;;
60352;SDS011;46196;52.970;6.954;2023-06-24T14:19:14;6.25;;;4.45;;
60352;SDS011;46196;52.970;6.954;2023-06-24T14:21:39;5.57;;;4.43;;
60352;SDS011;46196;52.970;6.954;2023-06-24T14:24:06;6.72;;;4.30;;
60352;SDS011;46196;52.970;6.954;2023-06-24T14:26:33;7.00;;;4.90;;
60352;SDS011;46196;52.970;6.954;2023-06-24T14:28:59;8.32;;;4.40;;
60352;SDS011;46196;52.970;6.954;2023-06-24T14:31:26;11.02;;;4.90;;
60352;SDS011;46196;52.970;6.954;2023-06-24T14:33:52;6.65;;;4.70;;
60352;SDS011;46196;52.970;6.954;2023-06-24T14:36:17;7.38;;;4.28;;
60352;SDS011;46196;52.970;6.954;2023-06-24T14:38:43;5.45;;;4.63;;
60352;SDS011;46196;52.970;6.954;2023-06-24T14:41:10;6.20;;;4.80;;
60352;SDS011;46196;52.970;6.954;2023-06-24T14:43:35;6.63;;;4.47;;
60352;SDS011;46196;52.970;6.954;2023-06-24T14:46:01;6.63;;;4.20;;
60352;SDS011;46196;52.970;6.954;2023-06-24T14:48:27;6.55;;;4.28;;
60352;SDS011;46196;52.970;6.954;2023-06-24T14:50:53;7.25;;;4.45;;
60352;SDS011;46196;52.970;6.954;2023-06-24T14:53:19;6.80;;;4.60;;
60352;SDS011;46196;52.970;6.954;2023-06-24T14:55:45;7.15;;;4.30;;
60352;SDS011;46196;52.970;6.954;2023-06-24T14:58:11;5.43;;;4.18;;
60352;SDS011;46196;52.970;6.954;2023-06-24T15:00:37;5.90;;;4.28;;
60352;SDS011;46196;52.970;6.954;2023-06-24T15:03:03;6.85;;;4.40;;
60352;SDS011;46196;52.970;6.954;2023-06-24T15:05:29;10.73;;;6.65;;
60352;SDS011;46196;52.970;6.954;2023-06-24T15:07:54;14.07;;;6.72;;